createdAt,value
2019-05-01T00:01:18.213Z,12.03
2019-05-01T00:04:07.834Z,13.43
2019-05-01T00:06:42.593Z,6.93
2019-05-01T00:09:15.115Z,9.93
2019-05-01T00:11:46.186Z,11.77
2019-05-01T00:14:16.963Z,13.87
2019-05-01T00:16:48.009Z,10.83
2019-05-01T00:19:18.918Z,9.67
2019-05-01T00:21:49.698Z,11.97
2019-05-01T00:24:20.550Z,12.33
2019-05-01T00:26:51.386Z,11.67
2019-05-01T00:29:22.233Z,9.93
2019-05-01T00:31:53.032Z,12.53
2019-05-01T00:34:23.750Z,9.67
2019-05-01T00:36:54.756Z,11.23
2019-05-01T00:39:25.602Z,11.27
2019-05-01T00:41:56.608Z,10.37
2019-05-01T00:44:27.620Z,9.33
2019-05-01T00:46:58.388Z,12.10
2019-05-01T00:49:29.153Z,13.77
2019-05-01T00:51:59.857Z,10.67
2019-05-01T00:54:32.431Z,12.27
2019-05-01T00:57:11.994Z,11.30
2019-05-01T00:59:49.192Z,10.93
2019-05-01T01:02:32.684Z,12.90
2019-05-01T01:05:03.576Z,11.30
2019-05-01T01:07:34.427Z,9.47
2019-05-01T01:10:07.373Z,12.33
2019-05-01T01:12:38.119Z,8.23
2019-05-01T01:15:08.953Z,11.43
2019-05-01T01:17:39.929Z,11.90
2019-05-01T01:20:10.682Z,15.10
2019-05-01T01:22:41.488Z,13.13
2019-05-01T01:25:12.581Z,8.43
2019-05-01T01:27:43.388Z,12.30
2019-05-01T01:30:14.818Z,12.10
2019-05-01T01:32:45.658Z,11.97
2019-05-01T01:35:16.483Z,15.63
2019-05-01T01:37:47.186Z,11.83
2019-05-01T01:40:19.425Z,13.47
2019-05-01T01:42:52.197Z,15.93
2019-05-01T01:45:33.108Z,15.90
2019-05-01T01:48:22.693Z,14.30
2019-05-01T01:50:53.604Z,17.83
2019-05-01T01:53:25.124Z,12.90
2019-05-01T01:55:56.583Z,17.60
2019-05-01T01:58:27.788Z,13.47
2019-05-01T02:01:17.252Z,13.50
2019-05-01T02:03:52.268Z,14.90
2019-05-01T02:06:23.133Z,16.27
2019-05-01T02:08:56.531Z,12.07
2019-05-01T02:11:27.281Z,15.07
2019-05-01T02:13:59.585Z,17.57
2019-05-01T02:16:30.399Z,16.77
2019-05-01T02:19:02.626Z,18.67
2019-05-01T02:21:33.813Z,28.67
2019-05-01T02:24:04.914Z,21.60
2019-05-01T02:26:40.500Z,13.73
2019-05-01T02:29:20.028Z,13.33
2019-05-01T02:31:52.540Z,14.77
2019-05-01T02:34:25.263Z,17.20
2019-05-01T02:36:58.784Z,14.47
2019-05-01T02:39:32.239Z,13.17
2019-05-01T02:42:04.282Z,12.03
2019-05-01T02:44:45.634Z,14.73
2019-05-01T02:47:23.619Z,14.87
2019-05-01T02:50:01.725Z,13.03
2019-05-01T02:52:36.205Z,16.27
2019-05-01T02:55:16.313Z,14.20
2019-05-01T02:57:48.895Z,15.13
2019-05-01T03:00:19.901Z,23.13
2019-05-01T03:02:51.264Z,15.23
2019-05-01T03:05:22.110Z,13.70
2019-05-01T03:07:52.893Z,14.90
2019-05-01T03:10:23.938Z,20.13
2019-05-01T03:12:55.385Z,12.40
2019-05-01T03:15:28.879Z,14.40
2019-05-01T03:18:10.116Z,15.00
2019-05-01T03:21:18.750Z,14.77
2019-05-01T03:23:53.945Z,13.93
2019-05-01T03:26:25.147Z,14.63
2019-05-01T03:28:56.989Z,11.47
2019-05-01T03:31:27.733Z,18.80
2019-05-01T03:33:58.619Z,15.73
2019-05-01T03:36:29.418Z,16.37
2019-05-01T03:39:00.550Z,15.67
2019-05-01T03:41:31.676Z,19.60
2019-05-01T03:44:02.421Z,19.67
2019-05-01T03:46:33.518Z,19.93
2019-05-01T03:49:05.382Z,16.37
2019-05-01T03:51:36.600Z,13.63
2019-05-01T03:54:07.482Z,20.47
2019-05-01T03:56:38.601Z,14.73
2019-05-01T03:59:09.294Z,13.37
2019-05-01T04:01:47.062Z,13.73
2019-05-01T04:04:21.154Z,14.40
2019-05-01T04:06:52.204Z,14.53
2019-05-01T04:09:23.299Z,11.70
2019-05-01T04:11:54.210Z,15.67
2019-05-01T04:14:25.355Z,16.40
2019-05-01T04:17:03.856Z,13.80
2019-05-01T04:19:34.883Z,15.80
2019-05-01T04:22:11.390Z,13.90
2019-05-01T04:24:43.560Z,10.40
2019-05-01T04:27:20.606Z,10.67
2019-05-01T04:30:11.009Z,12.77
2019-05-01T04:32:51.994Z,12.73
2019-05-01T04:35:26.024Z,9.67
2019-05-01T04:37:58.403Z,13.00
2019-05-01T04:40:29.407Z,14.07
2019-05-01T04:43:00.245Z,11.60
2019-05-01T04:45:31.744Z,13.93
2019-05-01T04:48:03.051Z,13.07
2019-05-01T04:50:34.571Z,12.37
2019-05-01T04:53:05.554Z,10.20
2019-05-01T04:55:36.952Z,13.70
2019-05-01T04:58:07.957Z,12.20
2019-05-01T05:00:39.556Z,14.70
2019-05-01T05:03:15.144Z,15.30
2019-05-01T05:05:47.013Z,13.57
2019-05-01T05:08:18.383Z,17.03
2019-05-01T05:10:51.121Z,14.77
2019-05-01T05:13:41.063Z,13.00
2019-05-01T05:16:30.860Z,13.00
2019-05-01T05:19:01.722Z,13.70
2019-05-01T05:21:32.763Z,12.57
2019-05-01T05:24:03.803Z,12.53
2019-05-01T05:26:35.561Z,10.77
2019-05-01T05:29:06.883Z,14.43
2019-05-01T05:31:38.873Z,15.70
2019-05-01T05:34:11.543Z,13.80
2019-05-01T05:36:44.205Z,14.60
2019-05-01T05:39:22.809Z,11.70
2019-05-01T05:41:55.434Z,15.27
2019-05-01T05:44:26.971Z,11.00
2019-05-01T05:46:58.167Z,12.87
2019-05-01T05:49:29.010Z,12.03
2019-05-01T05:52:21.872Z,17.80
2019-05-01T05:55:14.454Z,11.67
2019-05-01T05:58:06.219Z,9.37
2019-05-01T06:00:56.782Z,8.30
2019-05-01T06:03:48.923Z,10.27
2019-05-01T06:06:36.803Z,9.50
2019-05-01T06:09:13.762Z,7.43
2019-05-01T06:12:04.857Z,9.13
2019-05-01T06:14:47.432Z,7.53
2019-05-01T06:17:28.638Z,10.63
2019-05-01T06:20:20.764Z,8.67
2019-05-01T06:23:15.709Z,9.80
2019-05-01T06:25:48.522Z,9.57
2019-05-01T06:28:24.956Z,7.60
2019-05-01T06:30:54.462Z,10.83
2019-05-01T06:33:25.338Z,12.40
2019-05-01T06:35:58.006Z,16.93
2019-05-01T06:38:31.545Z,10.23
2019-05-01T06:41:02.283Z,13.10
2019-05-01T06:43:52.197Z,10.23
2019-05-01T06:46:30.258Z,11.20
2019-05-01T06:49:18.876Z,13.83
2019-05-01T06:51:53.608Z,6.23
2019-05-01T06:54:28.048Z,11.43
2019-05-01T06:57:00.274Z,8.83
2019-05-01T06:59:33.428Z,10.10
2019-05-01T07:02:04.983Z,10.23
2019-05-01T07:04:37.945Z,39.67
2019-05-01T07:07:24.102Z,14.10
2019-05-01T07:09:44.064Z,8.87
2019-05-01T07:12:23.987Z,10.17
2019-05-01T07:14:54.067Z,8.13
2019-05-01T07:17:25.112Z,11.73
2019-05-01T07:20:16.939Z,6.53
2019-05-01T07:22:48.317Z,9.07
2019-05-01T07:25:19.458Z,9.17
2019-05-01T07:27:53.901Z,6.57
2019-05-01T07:30:41.871Z,6.77
2019-05-01T07:33:16.766Z,8.70
2019-05-01T07:35:46.771Z,9.70
2019-05-01T07:38:18.290Z,7.23
2019-05-01T07:40:49.377Z,10.37
2019-05-01T07:43:39.864Z,7.53
2019-05-01T07:46:29.625Z,9.20
2019-05-01T07:49:01.293Z,6.50
2019-05-01T07:51:32.141Z,7.67
2019-05-01T07:54:06.673Z,7.23
2019-05-01T07:56:36.412Z,8.30
2019-05-01T07:59:07.705Z,8.57
2019-05-01T08:01:58.742Z,5.83
2019-05-01T08:04:37.003Z,5.17
2019-05-01T08:07:03.976Z,5.37
2019-05-01T08:09:35.832Z,5.47
2019-05-01T08:12:07.892Z,8.27
2019-05-01T08:14:39.173Z,4.50
2019-05-01T08:17:12.922Z,14.63
2019-05-01T08:19:49.606Z,10.73
2019-05-01T08:22:23.006Z,6.47
2019-05-01T08:24:58.842Z,7.27
2019-05-01T08:27:44.133Z,6.03
2019-05-01T08:33:44.778Z,8.97
2019-05-01T08:36:13.578Z,8.67
2019-05-01T08:38:44.312Z,4.20
2019-05-01T08:41:15.118Z,3.00
2019-05-01T08:43:48.924Z,6.70
2019-05-01T08:46:38.398Z,8.17
2019-05-01T08:49:18.126Z,4.80
2019-05-01T08:51:49.956Z,5.80
2019-05-01T08:54:20.744Z,5.33
2019-05-01T08:56:53.143Z,6.97
2019-05-01T08:59:25.776Z,5.23
2019-05-01T09:02:08.854Z,4.30
2019-05-01T09:04:30.309Z,3.00
2019-05-01T09:07:01.952Z,2.93
2019-05-01T09:09:33.457Z,3.83
2019-05-01T09:12:06.850Z,3.00
2019-05-01T09:14:36.941Z,6.37
2019-05-01T09:17:07.684Z,4.23
2019-05-01T09:19:38.430Z,5.43
2019-05-01T09:22:09.272Z,7.57
2019-05-01T09:24:40.723Z,8.20
2019-05-01T09:27:31.159Z,8.50
2019-05-01T09:30:08.607Z,7.03
2019-05-01T09:32:39.642Z,6.23
2019-05-01T09:35:15.867Z,6.03
2019-05-01T09:37:43.071Z,4.63
2019-05-01T09:40:14.113Z,4.47
2019-05-01T09:42:45.019Z,4.90
2019-05-01T09:45:17.987Z,8.03
2019-05-01T09:47:49.151Z,5.83
2019-05-01T09:50:20.138Z,4.73
2019-05-01T09:52:59.843Z,5.20
2019-05-01T09:55:49.332Z,5.97
2019-05-01T09:58:20.157Z,9.67
2019-05-01T10:00:53.865Z,5.47
2019-05-01T10:03:24.887Z,7.07
2019-05-01T10:05:55.772Z,5.70
2019-05-01T10:08:26.618Z,5.90
2019-05-01T10:10:59.858Z,7.27
2019-05-01T10:13:29.743Z,10.97
2019-05-01T10:16:00.765Z,7.07
2019-05-01T10:18:31.453Z,6.93
2019-05-01T10:21:02.115Z,8.20
2019-05-01T10:23:32.825Z,8.07
2019-05-01T10:26:05.800Z,6.97
2019-05-01T10:28:52.442Z,9.27
2019-05-01T10:31:27.597Z,6.77
2019-05-01T10:34:07.662Z,7.43
2019-05-01T10:36:49.930Z,10.93
2019-05-01T10:39:20.808Z,7.40
2019-05-01T10:41:51.494Z,9.50
2019-05-01T10:44:22.233Z,8.60
2019-05-01T10:46:53.003Z,10.00
2019-05-01T10:49:23.655Z,8.53
2019-05-01T10:51:54.314Z,8.00
2019-05-01T10:54:27.599Z,12.43
2019-05-01T10:56:58.827Z,8.50
2019-05-01T10:59:30.894Z,9.83
2019-05-01T11:02:02.927Z,10.00
2019-05-01T11:04:33.718Z,12.30
2019-05-01T11:07:04.393Z,13.60
2019-05-01T11:09:35.142Z,8.90
2019-05-01T11:12:05.983Z,13.30
2019-05-01T11:14:36.879Z,9.43
2019-05-01T11:17:08.099Z,10.07
2019-05-01T11:19:38.987Z,11.47
2019-05-01T11:22:09.683Z,12.30
2019-05-01T11:24:40.258Z,15.90
2019-05-01T11:27:11.124Z,12.67
2019-05-01T11:29:41.850Z,12.50
2019-05-01T11:32:32.061Z,12.53
2019-05-01T11:35:21.588Z,11.40
2019-05-01T11:38:11.069Z,12.47
2019-05-01T11:40:47.397Z,12.87
2019-05-01T11:43:18.053Z,11.57
2019-05-01T11:45:48.795Z,12.67
2019-05-01T11:48:19.514Z,12.67
2019-05-01T11:50:50.563Z,13.87
2019-05-01T11:53:21.274Z,12.40
2019-05-01T11:55:52.235Z,14.93
2019-05-01T11:58:23.103Z,12.27
2019-05-01T12:00:55.428Z,14.27
2019-05-01T12:03:26.084Z,13.13
2019-05-01T12:05:56.935Z,14.07
2019-05-01T12:08:27.663Z,17.10
2019-05-01T12:10:59.124Z,15.67
2019-05-01T12:13:42.739Z,18.13
2019-05-01T12:16:09.337Z,14.77
2019-05-01T12:18:40.278Z,16.43
2019-05-01T12:21:11.107Z,14.70
2019-05-01T12:23:42.227Z,14.80
2019-05-01T12:26:13.095Z,22.37
2019-05-01T12:28:43.893Z,18.10
2019-05-01T12:31:14.795Z,17.30
2019-05-01T12:33:45.881Z,17.43
2019-05-01T12:36:16.775Z,18.73
2019-05-01T12:38:47.764Z,22.20
2019-05-01T12:41:24.773Z,17.67
2019-05-01T12:43:55.669Z,18.47
2019-05-01T12:46:45.469Z,18.60
2019-05-01T12:49:16.255Z,17.97
2019-05-01T12:52:10.552Z,16.97
2019-05-01T12:54:51.824Z,16.53
2019-05-01T12:57:21.403Z,18.50
2019-05-01T12:59:52.320Z,18.63
2019-05-01T13:02:23.029Z,19.83
2019-05-01T13:04:53.715Z,23.10
2019-05-01T13:07:25.145Z,20.57
2019-05-01T13:09:56.073Z,25.87
2019-05-01T13:12:26.792Z,25.43
2019-05-01T13:14:57.528Z,23.80
2019-05-01T13:17:28.423Z,26.00
2019-05-01T13:19:58.969Z,26.73
2019-05-01T13:22:29.703Z,26.63
2019-05-01T13:25:00.419Z,27.57
2019-05-01T13:27:41.528Z,24.40
2019-05-01T13:30:26.216Z,26.33
2019-05-01T13:32:56.987Z,22.27
2019-05-01T13:35:30.479Z,25.53
2019-05-01T13:38:00.215Z,22.03
2019-05-01T13:40:31.009Z,24.50
2019-05-01T13:43:01.746Z,26.07
2019-05-01T13:45:32.413Z,28.50
2019-05-01T13:48:03.360Z,24.80
2019-05-01T13:50:34.459Z,26.17
2019-05-01T13:53:05.283Z,24.80
2019-05-01T13:55:36.038Z,24.90
2019-05-01T13:58:06.583Z,27.00
2019-05-01T14:00:37.583Z,23.87
2019-05-01T14:03:08.273Z,26.13
2019-05-01T14:08:21.608Z,25.13
2019-05-01T14:10:52.168Z,26.13
2019-05-01T14:13:22.799Z,27.33
2019-05-01T14:15:53.607Z,28.30
2019-05-01T14:18:24.264Z,32.43
2019-05-01T14:21:13.984Z,34.30
2019-05-01T14:24:03.644Z,29.43
2019-05-01T14:26:44.602Z,27.50
2019-05-01T14:29:15.432Z,30.30
2019-05-01T14:31:45.979Z,33.80
2019-05-01T14:34:16.807Z,29.13
2019-05-01T14:36:47.463Z,28.27
2019-05-01T14:39:18.209Z,30.53
2019-05-01T14:41:48.859Z,31.40
2019-05-01T14:44:19.713Z,26.63
2019-05-01T14:46:50.471Z,24.57
2019-05-01T14:49:21.198Z,26.20
2019-05-01T14:51:51.780Z,26.10
2019-05-01T14:54:22.614Z,27.77
2019-05-01T14:56:53.237Z,22.70
2019-05-01T14:59:23.858Z,25.87
2019-05-01T15:01:54.539Z,22.97
2019-05-01T15:04:25.218Z,18.87
2019-05-01T15:06:56.183Z,24.50
2019-05-01T15:09:26.687Z,22.47
2019-05-01T15:11:57.363Z,27.57
2019-05-01T15:14:46.927Z,23.83
2019-05-01T15:17:30.409Z,21.67
2019-05-01T15:22:43.916Z,21.00
2019-05-01T15:25:14.467Z,24.10
2019-05-01T15:27:45.127Z,23.87
2019-05-01T15:30:19.573Z,25.13
2019-05-01T15:32:50.198Z,24.33
2019-05-01T15:35:20.879Z,22.33
2019-05-01T15:40:39.887Z,27.70
2019-05-01T15:43:29.498Z,24.50
2019-05-01T15:46:00.282Z,31.43
2019-05-01T15:48:30.872Z,20.40
2019-05-01T15:51:01.546Z,27.07
2019-05-01T15:53:32.301Z,26.70
2019-05-01T15:56:02.978Z,22.20
2019-05-01T15:58:33.709Z,22.27
2019-05-01T16:01:04.423Z,24.63
2019-05-01T16:03:35.194Z,30.37
2019-05-01T16:06:08.338Z,28.53
2019-05-01T16:08:38.708Z,34.50
2019-05-01T16:11:28.263Z,35.70
2019-05-01T16:13:59.079Z,33.33
2019-05-01T16:16:29.873Z,29.90
2019-05-01T16:19:00.485Z,34.07
2019-05-01T16:21:30.986Z,32.17
2019-05-01T16:24:02.011Z,28.00
2019-05-01T16:26:32.732Z,27.50
2019-05-01T16:29:03.633Z,29.00
2019-05-01T16:31:34.628Z,33.37
2019-05-01T16:34:05.823Z,24.93
2019-05-01T16:36:36.715Z,26.33
2019-05-01T16:39:27.592Z,24.07
2019-05-01T16:41:58.525Z,25.40
2019-05-01T16:44:29.366Z,26.83
2019-05-01T16:47:00.403Z,29.73
2019-05-01T16:49:31.214Z,30.60
2019-05-01T16:52:01.846Z,27.00
2019-05-01T16:54:32.719Z,30.23
2019-05-01T16:57:03.454Z,27.37
2019-05-01T16:59:34.378Z,24.47
2019-05-01T17:02:24.190Z,22.57
2019-05-01T17:05:01.426Z,21.43
2019-05-01T17:07:37.576Z,22.50
2019-05-01T17:10:12.918Z,28.03
2019-05-01T17:12:52.033Z,24.07
2019-05-01T17:15:42.003Z,26.50
2019-05-01T17:18:14.407Z,24.67
2019-05-01T17:20:45.382Z,23.87
2019-05-01T17:23:16.289Z,24.07
2019-05-01T17:25:47.259Z,24.40
2019-05-01T17:28:18.117Z,25.27
2019-05-01T17:30:57.699Z,24.63
2019-05-01T17:33:29.176Z,24.50
2019-05-01T17:36:00.213Z,26.37
2019-05-01T17:38:31.097Z,26.00
2019-05-01T17:41:03.572Z,24.20
2019-05-01T17:43:37.062Z,22.03
2019-05-01T17:46:10.658Z,25.17
2019-05-01T17:48:43.698Z,25.87
2019-05-01T17:51:16.164Z,26.10
2019-05-01T17:53:47.943Z,24.33
2019-05-01T17:56:27.536Z,27.50
2019-05-01T17:58:52.783Z,27.87
2019-05-01T18:02:05.343Z,26.93
2019-05-01T18:04:50.641Z,26.70
2019-05-01T18:07:21.842Z,27.30
2019-05-01T18:09:55.682Z,27.70
2019-05-01T18:12:37.628Z,29.77
2019-05-01T18:15:10.856Z,26.47
2019-05-01T18:17:43.533Z,28.20
2019-05-01T18:20:16.285Z,28.70
2019-05-01T18:23:08.396Z,28.50
2019-05-01T18:25:51.046Z,30.23
2019-05-01T18:28:40.777Z,29.63
2019-05-01T18:31:16.997Z,31.30
2019-05-01T18:33:56.886Z,27.63
2019-05-01T18:36:35.268Z,41.07
2019-05-01T18:39:22.029Z,26.60
2019-05-01T18:41:53.814Z,35.57
2019-05-01T18:44:27.993Z,27.27
2019-05-01T18:47:00.044Z,29.97
2019-05-01T18:49:33.996Z,27.50
2019-05-01T18:52:11.761Z,29.43
2019-05-01T18:54:56.918Z,27.60
2019-05-01T18:57:27.735Z,27.87
2019-05-01T19:00:06.811Z,27.10
2019-05-01T19:02:42.884Z,27.77
2019-05-01T19:05:22.732Z,35.03
2019-05-01T19:07:59.009Z,31.33
2019-05-01T19:10:42.754Z,28.17
2019-05-01T19:13:14.427Z,29.60
2019-05-01T19:15:52.411Z,36.57
2019-05-01T19:18:27.043Z,41.50
2019-05-01T19:21:00.493Z,34.33
2019-05-01T19:23:37.028Z,34.13
2019-05-01T19:26:16.803Z,32.70
2019-05-01T19:28:51.112Z,32.37
2019-05-01T19:31:23.935Z,31.03
2019-05-01T19:34:02.228Z,36.83
2019-05-01T19:36:45.121Z,32.10
2019-05-01T19:39:15.036Z,35.20
2019-05-01T19:41:49.054Z,38.20
2019-05-01T19:44:33.155Z,36.30
2019-05-01T19:47:13.653Z,33.67
2019-05-01T19:49:54.430Z,39.23
2019-05-01T19:52:37.486Z,37.27
2019-05-01T19:55:20.523Z,42.93
2019-05-01T19:57:51.473Z,42.33
2019-05-01T20:00:57.333Z,42.77
2019-05-01T20:03:39.685Z,39.83
2019-05-01T20:06:12.073Z,36.93
2019-05-01T20:08:53.837Z,40.60
2019-05-01T20:11:36.269Z,40.33
2019-05-01T20:14:16.677Z,42.00
2019-05-01T20:16:57.141Z,39.23
2019-05-01T20:19:32.205Z,44.17
2019-05-01T20:22:34.604Z,38.00
2019-05-01T20:25:09.618Z,37.43
2019-05-01T20:27:48.334Z,37.23
2019-05-01T20:30:23.818Z,61.27
2019-05-01T20:33:10.233Z,39.63
2019-05-01T20:35:53.767Z,43.57
2019-05-01T20:38:34.384Z,53.87
2019-05-01T20:41:10.385Z,51.10
2019-05-01T20:43:45.893Z,40.30
2019-05-01T20:46:13.809Z,45.60
2019-05-01T20:48:45.436Z,40.30
2019-05-01T20:51:16.316Z,37.33
2019-05-01T20:53:53.853Z,37.97
2019-05-01T20:56:41.438Z,38.07
2019-05-01T20:59:17.686Z,40.33
2019-05-01T21:01:48.796Z,39.20
2019-05-01T21:04:34.588Z,36.97
2019-05-01T21:07:19.925Z,41.57
2019-05-01T21:09:57.236Z,56.43
2019-05-01T21:12:22.332Z,39.57
2019-05-01T21:14:56.921Z,39.73
2019-05-01T21:17:27.871Z,42.57
2019-05-01T21:19:58.865Z,37.97
2019-05-01T21:22:29.861Z,39.70
2019-05-01T21:25:00.820Z,41.10
2019-05-01T21:27:33.484Z,41.07
2019-05-01T21:30:05.129Z,39.27
2019-05-01T21:32:36.463Z,40.03
2019-05-01T21:35:07.498Z,40.80
2019-05-01T21:37:38.526Z,38.13
2019-05-01T21:40:12.738Z,41.80
2019-05-01T21:42:47.258Z,40.13
2019-05-01T21:45:16.088Z,42.97
2019-05-01T21:47:47.933Z,48.40
2019-05-01T21:50:22.797Z,43.10
2019-05-01T21:52:53.637Z,43.90
2019-05-01T21:55:25.817Z,42.87
2019-05-01T21:57:56.454Z,42.43
2019-05-01T22:00:48.534Z,40.67
2019-05-01T22:03:21.564Z,39.20
2019-05-01T22:05:52.404Z,43.33
2019-05-01T22:08:23.783Z,39.20
2019-05-01T22:10:57.545Z,41.33
2019-05-01T22:13:27.288Z,39.33
2019-05-01T22:16:04.119Z,38.13
2019-05-01T22:18:47.544Z,34.67
2019-05-01T22:21:27.671Z,37.73
2019-05-01T22:24:19.177Z,34.00
2019-05-01T22:27:05.600Z,37.30
2019-05-01T22:29:48.996Z,32.47
2019-05-01T22:32:27.755Z,38.10
2019-05-01T22:35:03.461Z,35.33
2019-05-01T22:37:38.106Z,37.27
2019-05-01T22:40:12.651Z,39.27
2019-05-01T22:42:44.585Z,33.50
2019-05-01T22:45:23.322Z,38.17
2019-05-01T22:47:54.218Z,36.87
2019-05-01T22:50:25.337Z,36.53
2019-05-01T22:52:56.283Z,38.27
2019-05-01T22:55:27.309Z,40.33
2019-05-01T22:57:58.233Z,35.73
2019-05-01T23:00:49.041Z,40.00
2019-05-01T23:03:24.847Z,45.47
2019-05-01T23:05:56.074Z,47.60
2019-05-01T23:08:27.033Z,45.97
2019-05-01T23:10:57.947Z,43.73
2019-05-01T23:13:28.818Z,47.63
2019-05-01T23:15:59.933Z,47.67
2019-05-01T23:18:30.772Z,43.93
2019-05-01T23:21:01.758Z,45.67
2019-05-01T23:23:32.666Z,59.77
2019-05-01T23:26:03.335Z,50.13
2019-05-01T23:28:34.892Z,52.77
2019-05-01T23:31:06.988Z,48.67
2019-05-01T23:33:37.768Z,53.03
2019-05-01T23:36:08.736Z,55.20
2019-05-01T23:38:39.563Z,56.27
2019-05-01T23:41:10.363Z,52.63
2019-05-01T23:43:41.073Z,51.73
2019-05-01T23:46:11.953Z,45.50
2019-05-01T23:48:42.746Z,46.20
2019-05-01T23:51:13.513Z,46.67
2019-05-01T23:53:48.255Z,45.87
2019-05-01T23:56:17.014Z,42.00
2019-05-01T23:58:47.822Z,42.10
